<?xml version="1.0" encoding="UTF-8" standalone="no" ?>
<gpx xmlns="http://www.topografix.com/GPX/1/1" xmlns:xsi="http://www.w3.org/2001/XMLSchema-instance" xsi:schemaLocation="http://www.topografix.com/GPX/1/1 http://www.topografix.com/GPX/1/1/gpx.xsd" version="1.1" creator="VisuGPX - https://www.visugpx.com">
  <metadata>
    <name>13725652-BOURGENAY</name>
  </metadata>
  <trk>
    <name><![CDATA[13725652-BOURGENAY]]></name>
    <trkseg>
      <trkpt lat="46.44639" lon="-1.67949">
        <ele>18</ele>
        <time>2021-09-29T09:14:24Z</time>
      </trkpt>
      <trkpt lat="46.44596" lon="-1.67897">
        <ele>16</ele>
        <time>2021-09-29T09:15:39Z</time>
      </trkpt>
      <trkpt lat="46.44596" lon="-1.67883">
        <ele>16</ele>
        <time>2021-09-29T09:15:52Z</time>
      </trkpt>
      <trkpt lat="46.446" lon="-1.67858">
        <ele>15</ele>
        <time>2021-09-29T09:16:15Z</time>
      </trkpt>
      <trkpt lat="46.44531" lon="-1.67803">
        <ele>12</ele>
        <time>2021-09-29T09:18:00Z</time>
      </trkpt>
      <trkpt lat="46.44529" lon="-1.67744">
        <ele>13</ele>
        <time>2021-09-29T09:18:55Z</time>
      </trkpt>
      <trkpt lat="46.4452" lon="-1.67682">
        <ele>14</ele>
        <time>2021-09-29T09:19:53Z</time>
      </trkpt>
      <trkpt lat="46.44517" lon="-1.67672">
        <ele>14</ele>
        <time>2021-09-29T09:20:03Z</time>
      </trkpt>
      <trkpt lat="46.44496" lon="-1.67659">
        <ele>14</ele>
        <time>2021-09-29T09:20:33Z</time>
      </trkpt>
      <trkpt lat="46.44472" lon="-1.67662">
        <ele>13</ele>
        <time>2021-09-29T09:21:05Z</time>
      </trkpt>
      <trkpt lat="46.44433" lon="-1.67674">
        <ele>12</ele>
        <time>2021-09-29T09:21:59Z</time>
      </trkpt>
      <trkpt lat="46.44411" lon="-1.67636">
        <ele>12</ele>
        <time>2021-09-29T09:22:44Z</time>
      </trkpt>
      <trkpt lat="46.444" lon="-1.67464">
        <ele>12</ele>
        <time>2021-09-29T09:25:23Z</time>
      </trkpt>
      <trkpt lat="46.44384" lon="-1.6744">
        <ele>12</ele>
        <time>2021-09-29T09:25:54Z</time>
      </trkpt>
      <trkpt lat="46.44304" lon="-1.67499">
        <ele>12</ele>
        <time>2021-09-29T09:27:54Z</time>
      </trkpt>
      <trkpt lat="46.44218" lon="-1.67524">
        <ele>13</ele>
        <time>2021-09-29T09:29:51Z</time>
      </trkpt>
      <trkpt lat="46.44149" lon="-1.67596">
        <ele>11</ele>
        <time>2021-09-29T09:31:44Z</time>
      </trkpt>
      <trkpt lat="46.44087" lon="-1.67576">
        <ele>8</ele>
        <time>2021-09-29T09:33:09Z</time>
      </trkpt>
      <trkpt lat="46.43909" lon="-1.67382">
        <ele>4</ele>
        <time>2021-09-29T09:38:06Z</time>
      </trkpt>
      <trkpt lat="46.43828" lon="-1.67144">
        <ele>7</ele>
        <time>2021-09-29T09:42:10Z</time>
      </trkpt>
      <trkpt lat="46.43821" lon="-1.66796">
        <ele>8</ele>
        <time>2021-09-29T09:47:30Z</time>
      </trkpt>
      <trkpt lat="46.43721" lon="-1.66562">
        <ele>5</ele>
        <time>2021-09-29T09:51:43Z</time>
      </trkpt>
      <trkpt lat="46.43511" lon="-1.66299">
        <ele>5</ele>
        <time>2021-09-29T09:57:54Z</time>
      </trkpt>
      <trkpt lat="46.43457" lon="-1.66049">
        <ele>7</ele>
        <time>2021-09-29T10:01:54Z</time>
      </trkpt>
      <trkpt lat="46.43545" lon="-1.66038">
        <ele>15</ele>
        <time>2021-09-29T10:03:52Z</time>
      </trkpt>
      <trkpt lat="46.43573" lon="-1.65871">
        <ele>14</ele>
        <time>2021-09-29T10:06:30Z</time>
      </trkpt>
      <trkpt lat="46.43816" lon="-1.65934">
        <ele>16</ele>
        <time>2021-09-29T10:12:00Z</time>
      </trkpt>
      <trkpt lat="46.43987" lon="-1.66237">
        <ele>12</ele>
        <time>2021-09-29T10:18:00Z</time>
      </trkpt>
      <trkpt lat="46.44045" lon="-1.66046">
        <ele>13</ele>
        <time>2021-09-29T10:21:12Z</time>
      </trkpt>
      <trkpt lat="46.4404" lon="-1.65292">
        <ele>11</ele>
        <time>2021-09-29T10:32:45Z</time>
      </trkpt>
      <trkpt lat="46.44259" lon="-1.65061">
        <ele>2</ele>
        <time>2021-09-29T10:38:47Z</time>
      </trkpt>
      <trkpt lat="46.44326" lon="-1.64825">
        <ele>2</ele>
        <time>2021-09-29T10:42:41Z</time>
      </trkpt>
      <trkpt lat="46.44647" lon="-1.64851">
        <ele>2</ele>
        <time>2021-09-29T10:49:50Z</time>
      </trkpt>
      <trkpt lat="46.44827" lon="-1.64968">
        <ele>3</ele>
        <time>2021-09-29T10:54:14Z</time>
      </trkpt>
      <trkpt lat="46.45024" lon="-1.65199">
        <ele>3</ele>
        <time>2021-09-29T10:59:52Z</time>
      </trkpt>
      <trkpt lat="46.45098" lon="-1.6535">
        <ele>6</ele>
        <time>2021-09-29T11:02:42Z</time>
      </trkpt>
      <trkpt lat="46.4511" lon="-1.65577">
        <ele>11</ele>
        <time>2021-09-29T11:06:11Z</time>
      </trkpt>
      <trkpt lat="46.44898" lon="-1.65757">
        <ele>8</ele>
        <time>2021-09-29T11:11:39Z</time>
      </trkpt>
      <trkpt lat="46.44907" lon="-1.65977">
        <ele>6</ele>
        <time>2021-09-29T11:15:02Z</time>
      </trkpt>
      <trkpt lat="46.44856" lon="-1.66125">
        <ele>3</ele>
        <time>2021-09-29T11:17:34Z</time>
      </trkpt>
      <trkpt lat="46.44951" lon="-1.66201">
        <ele>2</ele>
        <time>2021-09-29T11:19:58Z</time>
      </trkpt>
      <trkpt lat="46.45011" lon="-1.66359">
        <ele>7</ele>
        <time>2021-09-29T11:22:44Z</time>
      </trkpt>
      <trkpt lat="46.45076" lon="-1.665">
        <ele>12</ele>
        <time>2021-09-29T11:25:20Z</time>
      </trkpt>
      <trkpt lat="46.45218" lon="-1.66883">
        <ele>15</ele>
        <time>2021-09-29T11:32:00Z</time>
      </trkpt>
      <trkpt lat="46.45232" lon="-1.67374">
        <ele>21</ele>
        <time>2021-09-29T11:39:32Z</time>
      </trkpt>
      <trkpt lat="46.45294" lon="-1.67672">
        <ele>22</ele>
        <time>2021-09-29T11:44:18Z</time>
      </trkpt>
      <trkpt lat="46.45691" lon="-1.67617">
        <ele>23</ele>
        <time>2021-09-29T11:53:10Z</time>
      </trkpt>
      <trkpt lat="46.46126" lon="-1.67671">
        <ele>27</ele>
        <time>2021-09-29T12:02:53Z</time>
      </trkpt>
      <trkpt lat="46.46159" lon="-1.67622">
        <ele>26</ele>
        <time>2021-09-29T12:03:56Z</time>
      </trkpt>
      <trkpt lat="46.4628" lon="-1.6772">
        <ele>27</ele>
        <time>2021-09-29T12:07:01Z</time>
      </trkpt>
      <trkpt lat="46.46493" lon="-1.67672">
        <ele>31</ele>
        <time>2021-09-29T12:11:49Z</time>
      </trkpt>
      <trkpt lat="46.46479" lon="-1.68107">
        <ele>27</ele>
        <time>2021-09-29T12:18:29Z</time>
      </trkpt>
      <trkpt lat="46.46396" lon="-1.6869">
        <ele>24</ele>
        <time>2021-09-29T12:27:36Z</time>
      </trkpt>
      <trkpt lat="46.46399" lon="-1.6907">
        <ele>23</ele>
        <time>2021-09-29T12:33:25Z</time>
      </trkpt>
      <trkpt lat="46.46271" lon="-1.69046">
        <ele>25</ele>
        <time>2021-09-29T12:36:18Z</time>
      </trkpt>
      <trkpt lat="46.46113" lon="-1.69132">
        <ele>25</ele>
        <time>2021-09-29T12:40:03Z</time>
      </trkpt>
      <trkpt lat="46.46129" lon="-1.69491">
        <ele>25</ele>
        <time>2021-09-29T12:45:33Z</time>
      </trkpt>
      <trkpt lat="46.46054" lon="-1.6986">
        <ele>21</ele>
        <time>2021-09-29T12:51:27Z</time>
      </trkpt>
      <trkpt lat="46.46057" lon="-1.70099">
        <ele>23</ele>
        <time>2021-09-29T12:55:07Z</time>
      </trkpt>
      <trkpt lat="46.46139" lon="-1.70344">
        <ele>22</ele>
        <time>2021-09-29T12:59:17Z</time>
      </trkpt>
      <trkpt lat="46.45793" lon="-1.70326">
        <ele>24</ele>
        <time>2021-09-29T13:06:59Z</time>
      </trkpt>
      <trkpt lat="46.45623" lon="-1.70367">
        <ele>22</ele>
        <time>2021-09-29T13:10:49Z</time>
      </trkpt>
      <trkpt lat="46.45581" lon="-1.70201">
        <ele>23</ele>
        <time>2021-09-29T13:13:32Z</time>
      </trkpt>
      <trkpt lat="46.45513" lon="-1.69987">
        <ele>24</ele>
        <time>2021-09-29T13:17:08Z</time>
      </trkpt>
      <trkpt lat="46.4542" lon="-1.69647">
        <ele>21</ele>
        <time>2021-09-29T13:22:45Z</time>
      </trkpt>
      <trkpt lat="46.4527" lon="-1.69604">
        <ele>14</ele>
        <time>2021-09-29T13:26:09Z</time>
      </trkpt>
      <trkpt lat="46.45171" lon="-1.69259">
        <ele>7</ele>
        <time>2021-09-29T13:31:52Z</time>
      </trkpt>
      <trkpt lat="46.44963" lon="-1.6938">
        <ele>9</ele>
        <time>2021-09-29T13:36:51Z</time>
      </trkpt>
      <trkpt lat="46.4481" lon="-1.69381">
        <ele>11</ele>
        <time>2021-09-29T13:40:16Z</time>
      </trkpt>
      <trkpt lat="46.44758" lon="-1.69437">
        <ele>10</ele>
        <time>2021-09-29T13:41:42Z</time>
      </trkpt>
      <trkpt lat="46.4473" lon="-1.69474">
        <ele>9</ele>
        <time>2021-09-29T13:42:33Z</time>
      </trkpt>
      <trkpt lat="46.44687" lon="-1.69471">
        <ele>8</ele>
        <time>2021-09-29T13:43:30Z</time>
      </trkpt>
      <trkpt lat="46.44652" lon="-1.69471">
        <ele>8</ele>
        <time>2021-09-29T13:44:17Z</time>
      </trkpt>
      <trkpt lat="46.4458" lon="-1.69463">
        <ele>8</ele>
        <time>2021-09-29T13:45:53Z</time>
      </trkpt>
      <trkpt lat="46.44525" lon="-1.69457">
        <ele>5</ele>
        <time>2021-09-29T13:47:07Z</time>
      </trkpt>
      <trkpt lat="46.44452" lon="-1.69234">
        <ele>9</ele>
        <time>2021-09-29T13:50:54Z</time>
      </trkpt>
      <trkpt lat="46.44385" lon="-1.69148">
        <ele>8</ele>
        <time>2021-09-29T13:52:53Z</time>
      </trkpt>
      <trkpt lat="46.4428" lon="-1.68931">
        <ele>6</ele>
        <time>2021-09-29T13:56:57Z</time>
      </trkpt>
      <trkpt lat="46.44302" lon="-1.68749">
        <ele>12</ele>
        <time>2021-09-29T13:59:47Z</time>
      </trkpt>
      <trkpt lat="46.4419" lon="-1.68259">
        <ele>8</ele>
        <time>2021-09-29T14:07:42Z</time>
      </trkpt>
      <trkpt lat="46.44148" lon="-1.68019">
        <ele>8</ele>
        <time>2021-09-29T14:11:29Z</time>
      </trkpt>
      <trkpt lat="46.44142" lon="-1.67798">
        <ele>9</ele>
        <time>2021-09-29T14:14:53Z</time>
      </trkpt>
      <trkpt lat="46.44089" lon="-1.67618">
        <ele>7</ele>
        <time>2021-09-29T14:17:53Z</time>
      </trkpt>
      <trkpt lat="46.4417" lon="-1.6759">
        <ele>12</ele>
        <time>2021-09-29T14:19:44Z</time>
      </trkpt>
      <trkpt lat="46.44189" lon="-1.67662">
        <ele>13</ele>
        <time>2021-09-29T14:20:55Z</time>
      </trkpt>
      <trkpt lat="46.44208" lon="-1.67711">
        <ele>13</ele>
        <time>2021-09-29T14:21:46Z</time>
      </trkpt>
      <trkpt lat="46.44221" lon="-1.67744">
        <ele>13</ele>
        <time>2021-09-29T14:22:21Z</time>
      </trkpt>
      <trkpt lat="46.44271" lon="-1.67772">
        <ele>13</ele>
        <time>2021-09-29T14:23:33Z</time>
      </trkpt>
      <trkpt lat="46.4433" lon="-1.67733">
        <ele>10</ele>
        <time>2021-09-29T14:24:59Z</time>
      </trkpt>
      <trkpt lat="46.44363" lon="-1.67675">
        <ele>11</ele>
        <time>2021-09-29T14:26:09Z</time>
      </trkpt>
      <trkpt lat="46.44416" lon="-1.67663">
        <ele>12</ele>
        <time>2021-09-29T14:27:20Z</time>
      </trkpt>
      <trkpt lat="46.44508" lon="-1.6766">
        <ele>14</ele>
        <time>2021-09-29T14:29:23Z</time>
      </trkpt>
      <trkpt lat="46.44546" lon="-1.67821">
        <ele>13</ele>
        <time>2021-09-29T14:31:59Z</time>
      </trkpt>
      <trkpt lat="46.44597" lon="-1.67869">
        <ele>15</ele>
        <time>2021-09-29T14:33:20Z</time>
      </trkpt>
    </trkseg>
  </trk>
</gpx>